Grand Junction, CO (81505)

10:08 PM MDT on September 17, 2014 (GMT -0600)
Larkspur Lane | Change Station
CLOSE
Current Station
Personal Weather Station
Location: Grand Junction, CO
Elevation: 4672 ft
Nearby Weather Stations

Elev 4672 ft 39.10 °N, 108.56 °W | Updated 5 seconds ago

Clear
Clear
65.3 °F
Feels Like 65.3 °F
N
0.0
Wind Variable Wind from NE
Gusts 0.0 mph

Today
High -- | Low -- °F
--% Chance of Precip.
Yesterday
High -- | Low -- °F
Precip. -- in
6:57 AM 7:19 PM
Waning Crescent, 30% visible
Pressure 29.80 in
Visibility 10.0 miles
Clouds Clear
Dew Point 49 °F
Humidity 55%
Rainfall 0.00 in
Snow Depth 0 in , 0 in , 0 in
UV 0 out of 12
Pollen 5.60 out of 12
Air Quality Not available.
Flu Activity Not available.
METAR KGJT 180353Z 11003KT 10SM CLR 21/04 A2998 RMK AO2 SLP090 T02110039

More Conditions Fewer Conditions

Pressure 29.80 in
Visibility 10.0 miles
Clouds Clear
Dew Point 49 °F
Humidity 55%
Rainfall 0.00 in
Snow Depth 0 in , 0 in , 0 in
UV 0 out of 12
Pollen 5.60 out of 12
Air Quality Not available.
Flu Activity Not available.
METAR KGJT 180353Z 11003KT 10SM CLR 21/04 A2998 RMK AO2 SLP090 T02110039

More Conditions Fewer Conditions

10-Day Weather Forecast

Almanac

Astronomy

Sep. 17, 2014 Rise Set
Actual Time 6:57 AM MDT 7:19 PM MDT
Civil Twilight 6:30 AM MDT 7:46 PM MDT
Nautical Twilight 5:59 AM MDT 8:17 PM MDT
Astronomical Twilight 5:27 AM MDT 8:49 PM MDT
Moon 1:02 AM MDT (9/17) 3:29 PM MDT (9/17)
Length of Visible Light 13h 15m
Length of Day
12h 21m
Tomorrow will be 2m 32s shorter.
Waning Crescent, 30% of the Moon is Illuminated
Sep 18
Waning Crescent
Sep 24
New
Oct 1
First Quarter
Oct 8
Full
Oct 15
Last Quarter

Today's Extremes

State Highs State Lows

Community

WunderPhotos

Upload Photos

1,754,291 photos uploaded!

Nearby

Snow Depth

Station Depth Elevation
Loveland Basin 0 in 11400 ft
Dry Lake 0 in 8400 ft
Berthoud Summit 0 in 11300 ft
Never Summer 0 in 10280 ft
Tower 0 in 10500 ft

Earthquake Activity

City Distance Mag. Time & Date
No recent earthquake activity has been reported nearby.
Minimum magnitude displayed is 2.5.

Coastal Water Temperatures

Place Temperature
No Stations Reporting

Nearby Weather Stations